Terminal Aerodrome Forecast
Issued by NWS Pendleton, OR

Home | Current Version | Previous Version | Text Only | Print | Product List | Glossary On
Versions: 1 2 3 4 5 6 7 8 9 10 11 12 13 14 15 16 17 18 19 20 21 22 23 24 25 26 27 28 29 30 31 32 33 34
000
FTUS46 KPDT 191100
TAFPDT
TAF
KPDT 191120Z 1912/2012 13008KT 6SM -RA BR OVC060
     FM191500 18005KT 4SM -RA BR OVC035
     FM192000 26010KT 5SM HZ SCT025 OVC050
     FM200000 25007KT P6SM SCT050 BKN100
     FM200400 20005KT P6SM OVC030=

USA.gov is the U.S. government's official web portal to all federal, state and local government web resources and services.